sensor_id;sensor_type;location;lat;lon;timestamp;P1;durP1;ratioP1;P2;durP2;ratioP2
9034;SDS011;4552;43.422;24.592;2023-10-31T03:04:28;4.27;;;3.27;;
9034;SDS011;4552;43.422;24.592;2023-10-31T03:06:55;3.83;;;3.40;;
9034;SDS011;4552;43.422;24.592;2023-10-31T03:09:22;4.57;;;3.57;;
9034;SDS011;4552;43.422;24.592;2023-10-31T03:11:48;5.20;;;3.67;;
9034;SDS011;4552;43.422;24.592;2023-10-31T03:14:15;4.40;;;3.67;;
9034;SDS011;4552;43.422;24.592;2023-10-31T03:16:42;5.67;;;3.90;;
9034;SDS011;4552;43.422;24.592;2023-10-31T03:19:09;7.73;;;3.40;;
9034;SDS011;4552;43.422;24.592;2023-10-31T03:21:38;3.93;;;3.23;;
9034;SDS011;4552;43.422;24.592;2023-10-31T03:24:05;3.83;;;3.40;;
9034;SDS011;4552;43.422;24.592;2023-10-31T03:26:33;5.70;;;3.67;;
9034;SDS011;4552;43.422;24.592;2023-10-31T03:28:59;4.30;;;3.63;;
9034;SDS011;4552;43.422;24.592;2023-10-31T03:31:26;5.57;;;3.53;;
9034;SDS011;4552;43.422;24.592;2023-10-31T03:33:53;7.37;;;3.30;;
9034;SDS011;4552;43.422;24.592;2023-10-31T03:36:20;4.60;;;3.30;;
9034;SDS011;4552;43.422;24.592;2023-10-31T03:38:49;6.87;;;3.10;;
9034;SDS011;4552;43.422;24.592;2023-10-31T03:41:16;4.60;;;3.00;;
9034;SDS011;4552;43.422;24.592;2023-10-31T05:06:04;29.83;;;17.90;;
9034;SDS011;4552;43.422;24.592;2023-10-31T05:08:32;6.27;;;4.80;;
9034;SDS011;4552;43.422;24.592;2023-10-31T05:10:59;4.87;;;4.10;;
9034;SDS011;4552;43.422;24.592;2023-10-31T05:13:26;4.97;;;3.50;;
9034;SDS011;4552;43.422;24.592;2023-10-31T05:15:53;4.47;;;3.63;;
9034;SDS011;4552;43.422;24.592;2023-10-31T05:18:20;6.00;;;3.73;;
9034;SDS011;4552;43.422;24.592;2023-10-31T05:20:47;4.40;;;3.53;;
9034;SDS011;4552;43.422;24.592;2023-10-31T05:23:17;6.00;;;3.63;;
9034;SDS011;4552;43.422;24.592;2023-10-31T05:25:44;5.87;;;3.93;;
9034;SDS011;4552;43.422;24.592;2023-10-31T05:28:11;5.17;;;3.70;;
9034;SDS011;4552;43.422;24.592;2023-10-31T05:30:38;6.53;;;3.33;;
9034;SDS011;4552;43.422;24.592;2023-10-31T05:33:05;5.73;;;3.57;;
9034;SDS011;4552;43.422;24.592;2023-10-31T05:35:32;3.67;;;3.37;;
9034;SDS011;4552;43.422;24.592;2023-10-31T05:37:59;5.43;;;3.73;;
9034;SDS011;4552;43.422;24.592;2023-10-31T05:43:42;6.87;;;3.83;;
9034;SDS011;4552;43.422;24.592;2023-10-31T05:46:09;9.40;;;5.50;;
9034;SDS011;4552;43.422;24.592;2023-10-31T05:56:51;6.40;;;4.07;;
9034;SDS011;4552;43.422;24.592;2023-10-31T05:59:21;5.93;;;4.47;;
9034;SDS011;4552;43.422;24.592;2023-10-31T06:01:50;10.60;;;6.33;;
9034;SDS011;4552;43.422;24.592;2023-10-31T06:04:17;10.73;;;6.23;;
9034;SDS011;4552;43.422;24.592;2023-10-31T06:06:56;9.47;;;4.70;;
9034;SDS011;4552;43.422;24.592;2023-10-31T06:09:24;7.50;;;5.10;;
9034;SDS011;4552;43.422;24.592;2023-10-31T06:11:53;7.97;;;4.90;;
9034;SDS011;4552;43.422;24.592;2023-10-31T06:37:30;6.90;;;5.43;;
9034;SDS011;4552;43.422;24.592;2023-10-31T06:39:57;12.47;;;5.60;;
9034;SDS011;4552;43.422;24.592;2023-10-31T06:42:25;6.20;;;5.23;;
9034;SDS011;4552;43.422;24.592;2023-10-31T06:44:54;10.73;;;6.40;;
9034;SDS011;4552;43.422;24.592;2023-10-31T06:47:23;10.87;;;6.13;;
9034;SDS011;4552;43.422;24.592;2023-10-31T06:49:50;11.27;;;5.57;;
9034;SDS011;4552;43.422;24.592;2023-10-31T06:52:19;10.93;;;5.10;;
9034;SDS011;4552;43.422;24.592;2023-10-31T06:54:46;12.70;;;4.67;;
9034;SDS011;4552;43.422;24.592;2023-10-31T06:57:13;12.90;;;5.07;;
9034;SDS011;4552;43.422;24.592;2023-10-31T06:59:40;9.63;;;5.00;;
9034;SDS011;4552;43.422;24.592;2023-10-31T07:02:08;8.77;;;5.03;;
9034;SDS011;4552;43.422;24.592;2023-10-31T07:04:35;12.87;;;6.07;;
9034;SDS011;4552;43.422;24.592;2023-10-31T07:07:03;7.73;;;5.13;;
9034;SDS011;4552;43.422;24.592;2023-10-31T07:09:31;9.53;;;5.03;;
9034;SDS011;4552;43.422;24.592;2023-10-31T07:11:58;6.10;;;4.47;;
9034;SDS011;4552;43.422;24.592;2023-10-31T07:14:25;9.77;;;5.18;;
9034;SDS011;4552;43.422;24.592;2023-10-31T07:16:52;10.83;;;5.60;;
9034;SDS011;4552;43.422;24.592;2023-10-31T07:19:19;10.13;;;5.87;;
9034;SDS011;4552;43.422;24.592;2023-10-31T07:21:46;8.83;;;4.70;;
9034;SDS011;4552;43.422;24.592;2023-10-31T07:24:13;14.27;;;5.20;;
9034;SDS011;4552;43.422;24.592;2023-10-31T07:26:42;34.23;;;22.57;;
9034;SDS011;4552;43.422;24.592;2023-10-31T07:29:09;8.73;;;6.57;;
9034;SDS011;4552;43.422;24.592;2023-10-31T07:31:36;10.87;;;7.50;;
9034;SDS011;4552;43.422;24.592;2023-10-31T07:34:04;36.90;;;25.83;;
9034;SDS011;4552;43.422;24.592;2023-10-31T07:36:31;30.40;;;20.43;;
9034;SDS011;4552;43.422;24.592;2023-10-31T07:39:00;8.17;;;7.37;;
9034;SDS011;4552;43.422;24.592;2023-10-31T07:41:27;15.57;;;10.93;;
9034;SDS011;4552;43.422;24.592;2023-10-31T07:43:56;10.60;;;6.03;;
9034;SDS011;4552;43.422;24.592;2023-10-31T07:46:23;10.67;;;5.30;;
9034;SDS011;4552;43.422;24.592;2023-10-31T07:48:50;9.47;;;5.50;;
9034;SDS011;4552;43.422;24.592;2023-10-31T07:51:17;12.57;;;6.00;;
9034;SDS011;4552;43.422;24.592;2023-10-31T07:53:46;14.13;;;8.67;;
9034;SDS011;4552;43.422;24.592;2023-10-31T07:56:16;15.47;;;7.87;;
9034;SDS011;4552;43.422;24.592;2023-10-31T07:58:48;16.17;;;7.67;;
9034;SDS011;4552;43.422;24.592;2023-10-31T08:01:17;13.30;;;7.50;;
9034;SDS011;4552;43.422;24.592;2023-10-31T08:03:45;10.80;;;6.53;;
9034;SDS011;4552;43.422;24.592;2023-10-31T08:06:13;16.07;;;6.50;;
9034;SDS011;4552;43.422;24.592;2023-10-31T08:08:40;10.43;;;5.90;;
9034;SDS011;4552;43.422;24.592;2023-10-31T08:11:08;10.50;;;4.83;;
9034;SDS011;4552;43.422;24.592;2023-10-31T08:13:35;7.90;;;5.07;;
9034;SDS011;4552;43.422;24.592;2023-10-31T08:16:03;8.30;;;5.03;;
9034;SDS011;4552;43.422;24.592;2023-10-31T08:18:34;10.27;;;4.73;;
9034;SDS011;4552;43.422;24.592;2023-10-31T08:21:01;8.10;;;4.57;;
9034;SDS011;4552;43.422;24.592;2023-10-31T08:23:29;9.27;;;5.33;;
9034;SDS011;4552;43.422;24.592;2023-10-31T08:25:56;9.13;;;4.50;;
9034;SDS011;4552;43.422;24.592;2023-10-31T08:28:23;60.13;;;38.17;;
9034;SDS011;4552;43.422;24.592;2023-10-31T09:09:52;6.37;;;3.20;;
9034;SDS011;4552;43.422;24.592;2023-10-31T09:12:19;4.63;;;3.10;;
9034;SDS011;4552;43.422;24.592;2023-10-31T09:14:46;3.97;;;3.27;;
9034;SDS011;4552;43.422;24.592;2023-10-31T09:17:13;6.03;;;3.03;;
9034;SDS011;4552;43.422;24.592;2023-10-31T09:19:41;4.43;;;3.07;;
9034;SDS011;4552;43.422;24.592;2023-10-31T09:22:08;4.03;;;3.07;;
9034;SDS011;4552;43.422;24.592;2023-10-31T09:24:36;7.50;;;3.80;;
9034;SDS011;4552;43.422;24.592;2023-10-31T09:27:05;6.20;;;2.95;;
9034;SDS011;4552;43.422;24.592;2023-10-31T09:29:32;5.03;;;2.67;;
9034;SDS011;4552;43.422;24.592;2023-10-31T09:31:59;5.53;;;2.80;;
9034;SDS011;4552;43.422;24.592;2023-10-31T09:34:26;3.87;;;2.10;;
9034;SDS011;4552;43.422;24.592;2023-10-31T09:36:57;4.57;;;2.20;;
9034;SDS011;4552;43.422;24.592;2023-10-31T09:39:38;5.40;;;2.87;;
9034;SDS011;4552;43.422;24.592;2023-10-31T09:42:08;5.33;;;4.83;;
9034;SDS011;4552;43.422;24.592;2023-10-31T09:44:35;3.47;;;3.27;;
9034;SDS011;4552;43.422;24.592;2023-10-31T09:47:03;4.77;;;4.37;;
9034;SDS011;4552;43.422;24.592;2023-10-31T09:49:32;5.00;;;4.50;;
9034;SDS011;4552;43.422;24.592;2023-10-31T09:52:00;4.90;;;4.10;;
9034;SDS011;4552;43.422;24.592;2023-10-31T09:54:28;4.80;;;4.40;;
9034;SDS011;4552;43.422;24.592;2023-10-31T09:57:04;15.90;;;14.80;;
9034;SDS011;4552;43.422;24.592;2023-10-31T09:59:36;16.40;;;15.10;;
9034;SDS011;4552;43.422;24.592;2023-10-31T10:02:03;15.57;;;14.57;;
9034;SDS011;4552;43.422;24.592;2023-10-31T10:04:31;13.83;;;12.60;;
9034;SDS011;4552;43.422;24.592;2023-10-31T10:07:01;13.30;;;12.40;;
9034;SDS011;4552;43.422;24.592;2023-10-31T10:51:06;9.70;;;8.80;;
9034;SDS011;4552;43.422;24.592;2023-10-31T10:53:41;6.17;;;5.67;;
9034;SDS011;4552;43.422;24.592;2023-10-31T10:56:17;6.93;;;6.33;;
9034;SDS011;4552;43.422;24.592;2023-10-31T10:58:50;5.00;;;4.60;;
9034;SDS011;4552;43.422;24.592;2023-10-31T11:01:19;7.10;;;6.60;;
9034;SDS011;4552;43.422;24.592;2023-10-31T11:03:48;4.90;;;4.50;;
9034;SDS011;4552;43.422;24.592;2023-10-31T11:06:16;5.80;;;5.50;;
9034;SDS011;4552;43.422;24.592;2023-10-31T11:08:45;6.03;;;5.63;;
9034;SDS011;4552;43.422;24.592;2023-10-31T11:11:12;3.97;;;2.20;;
9034;SDS011;4552;43.422;24.592;2023-10-31T11:13:41;4.37;;;2.20;;
9034;SDS011;4552;43.422;24.592;2023-10-31T11:16:11;4.93;;;1.73;;
9034;SDS011;4552;43.422;24.592;2023-10-31T11:18:56;3.13;;;2.10;;
9034;SDS011;4552;43.422;24.592;2023-10-31T11:21:23;4.17;;;2.23;;
9034;SDS011;4552;43.422;24.592;2023-10-31T11:23:56;2.47;;;1.90;;
9034;SDS011;4552;43.422;24.592;2023-10-31T11:26:25;3.13;;;2.30;;
9034;SDS011;4552;43.422;24.592;2023-10-31T11:28:52;5.83;;;5.50;;
9034;SDS011;4552;43.422;24.592;2023-10-31T11:31:29;3.03;;;2.30;;
9034;SDS011;4552;43.422;24.592;2023-10-31T11:33:58;3.17;;;2.05;;
9034;SDS011;4552;43.422;24.592;2023-10-31T11:36:29;2.33;;;1.97;;
9034;SDS011;4552;43.422;24.592;2023-10-31T11:39:09;4.47;;;2.10;;
9034;SDS011;4552;43.422;24.592;2023-10-31T11:41:39;3.88;;;2.38;;
9034;SDS011;4552;43.422;24.592;2023-10-31T11:54:45;3.20;;;1.80;;
9034;SDS011;4552;43.422;24.592;2023-10-31T11:57:47;3.40;;;2.03;;
9034;SDS011;4552;43.422;24.592;2023-10-31T12:00:20;2.20;;;1.90;;
9034;SDS011;4552;43.422;24.592;2023-10-31T12:02:58;2.13;;;1.77;;
9034;SDS011;4552;43.422;24.592;2023-10-31T12:05:26;3.13;;;2.30;;
9034;SDS011;4552;43.422;24.592;2023-10-31T12:07:55;2.87;;;1.90;;
9034;SDS011;4552;43.422;24.592;2023-10-31T12:10:36;4.17;;;2.10;;
9034;SDS011;4552;43.422;24.592;2023-10-31T12:13:05;2.00;;;1.80;;
9034;SDS011;4552;43.422;24.592;2023-10-31T12:25:45;2.03;;;1.87;;
9034;SDS011;4552;43.422;24.592;2023-10-31T12:28:17;3.30;;;1.90;;
9034;SDS011;4552;43.422;24.592;2023-10-31T12:30:45;2.20;;;1.77;;
9034;SDS011;4552;43.422;24.592;2023-10-31T12:33:12;1.70;;;1.60;;
9034;SDS011;4552;43.422;24.592;2023-10-31T12:35:39;5.10;;;1.80;;
9034;SDS011;4552;43.422;24.592;2023-10-31T12:38:07;3.30;;;2.00;;
9034;SDS011;4552;43.422;24.592;2023-10-31T12:40:36;3.07;;;1.97;;
9034;SDS011;4552;43.422;24.592;2023-10-31T12:43:04;5.90;;;1.73;;
9034;SDS011;4552;43.422;24.592;2023-10-31T13:06:18;4.37;;;2.10;;
9034;SDS011;4552;43.422;24.592;2023-10-31T13:08:45;13.57;;;9.80;;
9034;SDS011;4552;43.422;24.592;2023-10-31T13:11:13;24.73;;;18.90;;
9034;SDS011;4552;43.422;24.592;2023-10-31T13:13:40;61.33;;;46.90;;
9034;SDS011;4552;43.422;24.592;2023-10-31T13:16:07;62.50;;;45.00;;
9034;SDS011;4552;43.422;24.592;2023-10-31T13:18:35;86.10;;;63.67;;
9034;SDS011;4552;43.422;24.592;2023-10-31T13:21:04;43.97;;;33.33;;
9034;SDS011;4552;43.422;24.592;2023-10-31T13:23:31;28.30;;;19.90;;
9034;SDS011;4552;43.422;24.592;2023-10-31T13:25:58;56.20;;;42.27;;
9034;SDS011;4552;43.422;24.592;2023-10-31T13:28:25;57.87;;;44.23;;
9034;SDS011;4552;43.422;24.592;2023-10-31T13:30:54;25.17;;;18.70;;
9034;SDS011;4552;43.422;24.592;2023-10-31T13:33:21;81.10;;;58.47;;
9034;SDS011;4552;43.422;24.592;2023-10-31T13:35:48;43.73;;;32.10;;
9034;SDS011;4552;43.422;24.592;2023-10-31T13:38:16;34.93;;;25.50;;
9034;SDS011;4552;43.422;24.592;2023-10-31T13:40:44;11.77;;;6.67;;
9034;SDS011;4552;43.422;24.592;2023-10-31T13:43:11;7.73;;;4.87;;
9034;SDS011;4552;43.422;24.592;2023-10-31T13:45:38;6.00;;;4.27;;
9034;SDS011;4552;43.422;24.592;2023-10-31T13:48:05;6.03;;;4.07;;
9034;SDS011;4552;43.422;24.592;2023-10-31T13:50:32;5.03;;;3.67;;
9034;SDS011;4552;43.422;24.592;2023-10-31T13:52:59;4.80;;;2.10;;
9034;SDS011;4552;43.422;24.592;2023-10-31T13:55:29;5.47;;;3.03;;
9034;SDS011;4552;43.422;24.592;2023-10-31T13:57:57;5.53;;;2.83;;
9034;SDS011;4552;43.422;24.592;2023-10-31T14:00:25;3.17;;;2.30;;
9034;SDS011;4552;43.422;24.592;2023-10-31T14:02:52;3.57;;;2.40;;
9034;SDS011;4552;43.422;24.592;2023-10-31T14:05:19;3.47;;;2.33;;
9034;SDS011;4552;43.422;24.592;2023-10-31T14:07:46;5.30;;;3.00;;
9034;SDS011;4552;43.422;24.592;2023-10-31T14:10:14;3.80;;;2.60;;
9034;SDS011;4552;43.422;24.592;2023-10-31T16:27:43;6.93;;;3.70;;
9034;SDS011;4552;43.422;24.592;2023-10-31T16:30:11;7.03;;;4.97;;
9034;SDS011;4552;43.422;24.592;2023-10-31T16:32:39;6.20;;;4.23;;
9034;SDS011;4552;43.422;24.592;2023-10-31T16:35:06;4.77;;;3.20;;
9034;SDS011;4552;43.422;24.592;2023-10-31T16:37:34;5.17;;;3.10;;
9034;SDS011;4552;43.422;24.592;2023-10-31T16:40:01;7.07;;;3.70;;
9034;SDS011;4552;43.422;24.592;2023-10-31T16:42:28;14.87;;;4.60;;
9034;SDS011;4552;43.422;24.592;2023-10-31T16:58:02;10.63;;;5.53;;
9034;SDS011;4552;43.422;24.592;2023-10-31T17:00:34;21.27;;;19.40;;
9034;SDS011;4552;43.422;24.592;2023-10-31T17:03:01;18.60;;;17.10;;
9034;SDS011;4552;43.422;24.592;2023-10-31T17:05:28;25.20;;;22.73;;
9034;SDS011;4552;43.422;24.592;2023-10-31T17:07:55;14.87;;;13.57;;
9034;SDS011;4552;43.422;24.592;2023-10-31T17:10:23;9.00;;;8.17;;
9034;SDS011;4552;43.422;24.592;2023-10-31T17:12:51;14.77;;;11.30;;
9034;SDS011;4552;43.422;24.592;2023-10-31T17:15:18;9.07;;;3.60;;
9034;SDS011;4552;43.422;24.592;2023-10-31T17:17:45;40.00;;;27.00;;
9034;SDS011;4552;43.422;24.592;2023-10-31T17:20:12;19.67;;;14.53;;
9034;SDS011;4552;43.422;24.592;2023-10-31T17:22:39;9.30;;;6.67;;
9034;SDS011;4552;43.422;24.592;2023-10-31T17:25:06;8.50;;;5.20;;
9034;SDS011;4552;43.422;24.592;2023-10-31T17:27:33;34.13;;;27.00;;
9034;SDS011;4552;43.422;24.592;2023-10-31T17:30:02;18.93;;;13.67;;
9034;SDS011;4552;43.422;24.592;2023-10-31T17:32:30;12.25;;;5.70;;
9034;SDS011;4552;43.422;24.592;2023-10-31T17:34:58;8.23;;;3.97;;
9034;SDS011;4552;43.422;24.592;2023-10-31T17:37:25;5.03;;;2.97;;
9034;SDS011;4552;43.422;24.592;2023-10-31T17:39:51;6.43;;;4.27;;
9034;SDS011;4552;43.422;24.592;2023-10-31T17:42:19;6.47;;;3.87;;
9034;SDS011;4552;43.422;24.592;2023-10-31T17:44:53;5.93;;;4.53;;
9034;SDS011;4552;43.422;24.592;2023-10-31T17:47:21;19.13;;;17.43;;
9034;SDS011;4552;43.422;24.592;2023-10-31T17:49:49;18.60;;;16.87;;
9034;SDS011;4552;43.422;24.592;2023-10-31T17:52:16;20.40;;;18.00;;
9034;SDS011;4552;43.422;24.592;2023-10-31T17:54:43;23.63;;;19.40;;
9034;SDS011;4552;43.422;24.592;2023-10-31T20:11:20;4.80;;;3.27;;
9034;SDS011;4552;43.422;24.592;2023-10-31T20:13:47;5.53;;;3.15;;
9034;SDS011;4552;43.422;24.592;2023-10-31T20:16:15;3.50;;;2.93;;
9034;SDS011;4552;43.422;24.592;2023-10-31T20:18:43;4.30;;;3.43;;
9034;SDS011;4552;43.422;24.592;2023-10-31T20:21:10;5.23;;;3.57;;
9034;SDS011;4552;43.422;24.592;2023-10-31T20:23:37;5.03;;;3.37;;
9034;SDS011;4552;43.422;24.592;2023-10-31T20:26:06;8.23;;;4.10;;
9034;SDS011;4552;43.422;24.592;2023-10-31T20:28:35;8.20;;;4.47;;
9034;SDS011;4552;43.422;24.592;2023-10-31T21:05:03;6.40;;;4.00;;
9034;SDS011;4552;43.422;24.592;2023-10-31T21:07:31;6.07;;;3.90;;
9034;SDS011;4552;43.422;24.592;2023-10-31T21:09:58;6.07;;;3.57;;
9034;SDS011;4552;43.422;24.592;2023-10-31T21:12:25;6.83;;;3.30;;
9034;SDS011;4552;43.422;24.592;2023-10-31T21:14:52;5.20;;;3.63;;
9034;SDS011;4552;43.422;24.592;2023-10-31T21:17:19;7.90;;;3.93;;
9034;SDS011;4552;43.422;24.592;2023-10-31T21:19:46;9.80;;;4.03;;
9034;SDS011;4552;43.422;24.592;2023-10-31T21:22:14;8.20;;;4.33;;
9034;SDS011;4552;43.422;24.592;2023-10-31T21:24:41;8.50;;;4.87;;
9034;SDS011;4552;43.422;24.592;2023-10-31T21:27:08;8.93;;;4.70;;
9034;SDS011;4552;43.422;24.592;2023-10-31T21:29:38;7.20;;;4.43;;
9034;SDS011;4552;43.422;24.592;2023-10-31T22:32:17;10.87;;;6.00;;
9034;SDS011;4552;43.422;24.592;2023-10-31T22:34:44;8.43;;;6.00;;
9034;SDS011;4552;43.422;24.592;2023-10-31T22:37:12;9.13;;;5.87;;
9034;SDS011;4552;43.422;24.592;2023-10-31T22:39:39;10.70;;;5.97;;
9034;SDS011;4552;43.422;24.592;2023-10-31T22:42:06;10.17;;;5.60;;
9034;SDS011;4552;43.422;24.592;2023-10-31T22:44:34;8.23;;;4.90;;
9034;SDS011;4552;43.422;24.592;2023-10-31T22:47:01;6.97;;;4.80;;
9034;SDS011;4552;43.422;24.592;2023-10-31T22:49:30;11.03;;;5.50;;
9034;SDS011;4552;43.422;24.592;2023-10-31T22:51:57;9.83;;;6.43;;
9034;SDS011;4552;43.422;24.592;2023-10-31T22:54:24;11.43;;;7.47;;
9034;SDS011;4552;43.422;24.592;2023-10-31T22:56:51;12.07;;;7.53;;
9034;SDS011;4552;43.422;24.592;2023-10-31T22:59:18;15.98;;;9.88;;
9034;SDS011;4552;43.422;24.592;2023-10-31T23:01:45;12.82;;;9.20;;
9034;SDS011;4552;43.422;24.592;2023-10-31T23:04:12;13.57;;;7.30;;
9034;SDS011;4552;43.422;24.592;2023-10-31T23:06:40;11.27;;;7.50;;
9034;SDS011;4552;43.422;24.592;2023-10-31T23:09:07;15.50;;;6.10;;
9034;SDS011;4552;43.422;24.592;2023-10-31T23:11:35;11.10;;;6.73;;
9034;SDS011;4552;43.422;24.592;2023-10-31T23:14:02;7.17;;;5.50;;
9034;SDS011;4552;43.422;24.592;2023-10-31T23:16:29;12.43;;;5.93;;
9034;SDS011;4552;43.422;24.592;2023-10-31T23:18:56;9.03;;;5.20;;
9034;SDS011;4552;43.422;24.592;2023-10-31T23:21:23;10.53;;;5.63;;
9034;SDS011;4552;43.422;24.592;2023-10-31T23:23:51;9.10;;;4.97;;
9034;SDS011;4552;43.422;24.592;2023-10-31T23:26:18;15.23;;;4.83;;
9034;SDS011;4552;43.422;24.592;2023-10-31T23:28:45;8.73;;;4.47;;
9034;SDS011;4552;43.422;24.592;2023-10-31T23:31:12;7.27;;;4.47;;
9034;SDS011;4552;43.422;24.592;2023-10-31T23:33:39;7.23;;;4.70;;
9034;SDS011;4552;43.422;24.592;2023-10-31T23:36:06;9.60;;;4.60;;
9034;SDS011;4552;43.422;24.592;2023-10-31T23:38:34;7.83;;;4.83;;
9034;SDS011;4552;43.422;24.592;2023-10-31T23:41:03;7.13;;;4.67;;
9034;SDS011;4552;43.422;24.592;2023-10-31T23:43:30;5.20;;;3.80;;
9034;SDS011;4552;43.422;24.592;2023-10-31T23:45:57;7.40;;;4.43;;
9034;SDS011;4552;43.422;24.592;2023-10-31T23:48:24;6.63;;;3.83;;
9034;SDS011;4552;43.422;24.592;2023-10-31T23:50:51;7.63;;;4.07;;
